createdAt,value
2019-05-15T00:01:51.502Z,1023.70
2019-05-15T00:02:51.506Z,1023.71
2019-05-15T00:04:44.405Z,1023.72
2019-05-15T00:05:44.415Z,1023.70
2019-05-15T00:07:39.115Z,1023.71
2019-05-15T00:08:38.707Z,1023.70
2019-05-15T00:10:30.227Z,1023.62
2019-05-15T00:11:30.237Z,1023.66
2019-05-15T00:13:23.141Z,1023.63
2019-05-15T00:14:23.152Z,1023.63
2019-05-15T00:16:18.047Z,1023.65
2019-05-15T00:17:16.054Z,1023.62
2019-05-15T00:19:08.969Z,1023.65
2019-05-15T00:20:09.959Z,1023.66
2019-05-15T00:22:01.868Z,1023.63
2019-05-15T00:23:01.869Z,1023.67
2019-05-15T00:24:54.773Z,1023.68
2019-05-15T00:25:54.778Z,1023.64
2019-05-15T00:27:49.101Z,1023.67
2019-05-15T00:28:48.036Z,1023.68
2019-05-15T00:30:40.586Z,1023.65
2019-05-15T00:31:40.596Z,1023.65
2019-05-15T00:33:33.502Z,1023.68
2019-05-15T00:34:33.502Z,1023.66
2019-05-15T00:36:28.509Z,1023.66
2019-05-15T00:37:28.758Z,1023.67
2019-05-15T00:39:19.322Z,1023.62
2019-05-15T00:40:19.333Z,1023.65
2019-05-15T00:42:12.229Z,1023.63
2019-05-15T00:43:12.230Z,1023.62
2019-05-15T00:45:05.130Z,1023.63
2019-05-15T00:46:05.140Z,1023.63
2019-05-15T00:47:58.052Z,1023.60
2019-05-15T00:48:59.218Z,1023.65
2019-05-15T00:50:50.951Z,1023.62
2019-05-15T00:51:50.963Z,1023.61
2019-05-15T00:53:43.871Z,1023.60
2019-05-15T00:54:43.865Z,1023.59
2019-05-15T00:56:38.940Z,1023.56
2019-05-15T00:57:38.908Z,1023.55
2019-05-15T00:59:30.226Z,1023.59
2019-05-15T01:00:29.683Z,1023.58
2019-05-15T01:02:22.588Z,1023.57
2019-05-15T01:03:22.592Z,1023.53
2019-05-15T01:05:15.501Z,1023.56
2019-05-15T01:06:15.566Z,1023.53
2019-05-15T01:08:08.421Z,1023.51
2019-05-15T01:09:08.530Z,1023.51
2019-05-15T01:11:01.307Z,1023.50
2019-05-15T01:12:01.315Z,1023.50
2019-05-15T01:13:54.220Z,1023.50
2019-05-15T01:14:54.224Z,1023.47
2019-05-15T01:16:48.974Z,1023.47
2019-05-15T01:17:49.061Z,1023.44
2019-05-15T01:19:40.038Z,1023.43
2019-05-15T01:20:40.040Z,1023.43
2019-05-15T01:22:32.948Z,1023.45
2019-05-15T01:23:32.961Z,1023.46
2019-05-15T01:25:27.923Z,1023.46
2019-05-15T01:26:28.081Z,1023.47
2019-05-15T01:28:18.762Z,1023.48
2019-05-15T01:29:18.765Z,1023.48
2019-05-15T01:31:11.667Z,1023.48
2019-05-15T01:32:11.674Z,1023.48
2019-05-15T01:34:04.588Z,1023.48
2019-05-15T01:35:04.581Z,1023.49
2019-05-15T01:36:59.078Z,1023.53
2019-05-15T01:37:58.562Z,1023.51
2019-05-15T01:39:50.391Z,1023.48
2019-05-15T01:40:50.393Z,1023.47
2019-05-15T01:42:43.299Z,1023.47
2019-05-15T01:43:43.299Z,1023.47
2019-05-15T01:45:39.069Z,1023.41
2019-05-15T01:46:39.209Z,1023.42
2019-05-15T01:48:29.609Z,1023.39
2019-05-15T01:49:29.613Z,1023.41
2019-05-15T01:51:22.510Z,1023.39
2019-05-15T01:52:22.516Z,1023.41
2019-05-15T01:54:15.423Z,1023.37
2019-05-15T01:55:15.422Z,1023.40
2019-05-15T01:57:09.351Z,1023.39
2019-05-15T01:58:09.151Z,1023.36
2019-05-15T02:00:01.261Z,1023.39
2019-05-15T02:01:01.250Z,1023.34
2019-05-15T02:02:54.144Z,1023.36
2019-05-15T02:03:54.146Z,1023.35
2019-05-15T02:05:48.074Z,1023.35
2019-05-15T02:06:48.315Z,1023.32
2019-05-15T02:08:39.962Z,1023.34
2019-05-15T02:09:39.960Z,1023.30
2019-05-15T02:11:32.862Z,1023.30
2019-05-15T02:12:32.868Z,1023.31
2019-05-15T02:14:28.318Z,1023.34
2019-05-15T02:15:25.772Z,1023.34
2019-05-15T02:17:19.012Z,1023.35
2019-05-15T02:18:19.115Z,1023.35
2019-05-15T02:20:11.594Z,1023.35
2019-05-15T02:21:11.587Z,1023.35
2019-05-15T02:23:04.493Z,1023.36
2019-05-15T02:24:04.497Z,1023.37
2019-05-15T02:25:58.841Z,1023.36
2019-05-15T02:26:58.796Z,1023.34
2019-05-15T02:28:50.303Z,1023.36
2019-05-15T02:29:50.306Z,1023.40
2019-05-15T02:31:43.207Z,1023.39
2019-05-15T02:32:43.216Z,1023.38
2019-05-15T02:34:39.204Z,1023.38
2019-05-15T02:35:38.875Z,1023.40
2019-05-15T02:37:29.602Z,1023.37
2019-05-15T02:38:29.769Z,1023.39
2019-05-15T02:40:21.934Z,1023.37
2019-05-15T02:41:21.934Z,1023.34
2019-05-15T02:43:14.842Z,1023.38
2019-05-15T02:44:14.844Z,1023.40
2019-05-15T02:46:10.140Z,1023.42
2019-05-15T02:47:09.264Z,1023.36
2019-05-15T02:49:00.656Z,1023.37
2019-05-15T02:50:00.663Z,1023.38
2019-05-15T02:51:53.556Z,1023.38
2019-05-15T02:52:53.562Z,1023.37
2019-05-15T02:54:49.552Z,1023.36
2019-05-15T02:55:49.167Z,1023.37
2019-05-15T02:57:39.807Z,1023.35
2019-05-15T02:58:39.995Z,1023.33
2019-05-15T03:00:41.708Z,1023.34
2019-05-15T03:01:32.278Z,1023.35
2019-05-15T03:03:25.182Z,1023.35
2019-05-15T03:04:25.194Z,1023.36
2019-05-15T03:06:19.254Z,1023.38
2019-05-15T03:07:19.289Z,1023.36
2019-05-15T03:09:10.993Z,1023.37
2019-05-15T03:10:10.996Z,1023.39
2019-05-15T03:12:03.894Z,1023.40
2019-05-15T03:13:03.904Z,1023.38
2019-05-15T03:14:59.713Z,1023.33
2019-05-15T03:15:59.676Z,1023.32
2019-05-15T03:17:49.709Z,1023.26
2019-05-15T03:18:50.457Z,1023.29
2019-05-15T03:20:42.627Z,1023.30
2019-05-15T03:21:42.621Z,1023.24
2019-05-15T03:23:35.523Z,1023.24
2019-05-15T03:24:35.524Z,1023.23
2019-05-15T03:26:29.845Z,1023.24
2019-05-15T03:27:30.331Z,1023.24
2019-05-15T03:29:21.428Z,1023.21
2019-05-15T03:30:22.196Z,1023.25
2019-05-15T03:32:27.378Z,1023.27
2019-05-15T03:33:20.571Z,1023.33
2019-05-15T03:35:13.105Z,1023.31
2019-05-15T03:36:12.513Z,1023.27
2019-05-15T03:38:00.110Z,1023.25
2019-05-15T03:39:00.056Z,1023.27
2019-05-15T03:40:52.956Z,1023.29
2019-05-15T03:41:52.958Z,1023.26
2019-05-15T03:43:49.310Z,1023.19
2019-05-15T03:44:45.862Z,1023.18
2019-05-15T03:46:39.850Z,1023.19
2019-05-15T03:47:40.219Z,1023.21
2019-05-15T03:49:31.677Z,1023.22
2019-05-15T03:50:31.672Z,1023.21
2019-05-15T03:52:24.571Z,1023.21
2019-05-15T03:53:24.578Z,1023.19
2019-05-15T03:55:18.702Z,1023.18
2019-05-15T03:56:19.093Z,1023.20
2019-05-15T03:58:10.563Z,1023.18
2019-05-15T03:59:10.393Z,1023.19
2019-05-15T04:01:03.317Z,1023.16
2019-05-15T04:02:03.305Z,1023.17
2019-05-15T04:03:59.618Z,1023.22
2019-05-15T04:04:58.075Z,1023.20
2019-05-15T04:06:49.827Z,1023.22
2019-05-15T04:07:49.594Z,1023.24
2019-05-15T04:09:42.021Z,1023.24
2019-05-15T04:10:42.022Z,1023.28
2019-05-15T04:12:34.933Z,1023.25
2019-05-15T04:13:34.934Z,1023.28
2019-05-15T04:15:30.124Z,1023.25
2019-05-15T04:16:29.635Z,1023.28
2019-05-15T04:18:20.746Z,1023.24
2019-05-15T04:19:20.749Z,1023.28
2019-05-15T04:21:13.697Z,1023.30
2019-05-15T04:22:13.691Z,1023.33
2019-05-15T04:24:09.282Z,1023.35
2019-05-15T04:25:09.372Z,1023.31
2019-05-15T04:27:00.032Z,1023.37
2019-05-15T04:27:59.512Z,1023.39
2019-05-15T04:29:52.425Z,1023.29
2019-05-15T04:30:52.427Z,1023.27
2019-05-15T04:32:45.333Z,1023.26
2019-05-15T04:33:45.342Z,1023.30
2019-05-15T04:35:40.275Z,1023.33
2019-05-15T04:36:39.552Z,1023.35
2019-05-15T04:38:31.163Z,1023.33
2019-05-15T04:39:31.222Z,1023.33
2019-05-15T04:41:24.091Z,1023.29
2019-05-15T04:42:24.094Z,1023.30
2019-05-15T04:44:19.279Z,1023.28
2019-05-15T04:45:19.410Z,1023.32
2019-05-15T04:47:10.033Z,1023.34
2019-05-15T04:48:10.586Z,1023.32
2019-05-15T04:50:02.847Z,1023.36
2019-05-15T04:51:02.851Z,1023.34
2019-05-15T04:52:59.035Z,1023.42
2019-05-15T04:53:58.456Z,1023.47
2019-05-15T04:55:49.317Z,1023.49
2019-05-15T04:56:49.019Z,1023.52
2019-05-15T04:58:41.598Z,1023.51
2019-05-15T04:59:41.634Z,1023.49
2019-05-15T05:01:34.531Z,1023.49
2019-05-15T05:02:34.566Z,1023.47
2019-05-15T05:04:29.485Z,1023.45
2019-05-15T05:05:29.336Z,1023.47
2019-05-15T05:07:20.364Z,1023.48
2019-05-15T05:08:20.977Z,1023.49
2019-05-15T05:10:13.295Z,1023.51
2019-05-15T05:11:13.311Z,1023.50
2019-05-15T05:13:08.698Z,1023.54
2019-05-15T05:14:08.508Z,1023.55
2019-05-15T05:15:59.154Z,1023.62
2019-05-15T05:16:59.418Z,1023.57
2019-05-15T05:18:52.088Z,1023.61
2019-05-15T05:19:52.087Z,1023.60
2019-05-15T05:21:45.003Z,1023.60
2019-05-15T05:22:45.014Z,1023.65
2019-05-15T05:24:38.511Z,1023.65
2019-05-15T05:25:38.816Z,1023.70
2019-05-15T05:27:30.862Z,1023.73
2019-05-15T05:28:30.872Z,1023.72
2019-05-15T05:30:23.791Z,1023.68
2019-05-15T05:31:23.800Z,1023.65
2019-05-15T05:33:17.948Z,1023.68
2019-05-15T05:34:19.200Z,1023.67
2019-05-15T05:36:09.641Z,1023.71
2019-05-15T05:37:09.649Z,1023.67
2019-05-15T05:39:02.561Z,1023.70
2019-05-15T05:40:02.572Z,1023.70
2019-05-15T05:41:55.483Z,1023.68
2019-05-15T05:42:55.490Z,1023.70
2019-05-15T05:44:48.924Z,1023.63
2019-05-15T05:45:49.115Z,1023.62
2019-05-15T05:47:41.333Z,1023.66
2019-05-15T05:48:41.337Z,1023.64
2019-05-15T05:50:34.257Z,1023.72
2019-05-15T05:51:34.256Z,1023.72
2019-05-15T05:53:28.721Z,1023.75
2019-05-15T05:54:28.814Z,1023.70
2019-05-15T05:56:20.103Z,1023.71
2019-05-15T05:57:20.120Z,1023.70
2019-05-15T05:59:13.027Z,1023.64
2019-05-15T06:00:13.042Z,1023.65
2019-05-15T06:02:08.223Z,1023.63
2019-05-15T06:03:08.672Z,1023.60
2019-05-15T06:04:58.889Z,1023.63
2019-05-15T06:05:59.256Z,1023.66
2019-05-15T06:07:51.845Z,1023.68
2019-05-15T06:08:51.853Z,1023.68
2019-05-15T06:10:44.772Z,1023.61
2019-05-15T06:11:44.784Z,1023.62
2019-05-15T06:13:38.280Z,1023.70
2019-05-15T06:14:38.108Z,1023.64
2019-05-15T06:16:30.645Z,1023.68
2019-05-15T06:17:30.657Z,1023.71
2019-05-15T06:19:23.575Z,1023.79
2019-05-15T06:20:23.592Z,1023.77
2019-05-15T06:22:18.628Z,1023.79
2019-05-15T06:23:22.281Z,1023.80
2019-05-15T06:25:11.229Z,1023.78
2019-05-15T06:26:09.729Z,1023.74
2019-05-15T06:28:02.399Z,1023.81
2019-05-15T06:29:02.411Z,1023.81
2019-05-15T06:31:00.373Z,1023.86
2019-05-15T06:31:55.352Z,1023.86
2019-05-15T06:33:49.019Z,1023.88
2019-05-15T06:34:48.612Z,1023.86
2019-05-15T06:36:41.223Z,1023.83
2019-05-15T06:37:41.237Z,1023.86
2019-05-15T06:39:34.160Z,1023.84
2019-05-15T06:40:34.177Z,1023.87
2019-05-15T06:42:28.291Z,1023.80
2019-05-15T06:43:28.046Z,1023.82
2019-05-15T06:45:20.040Z,1023.89
2019-05-15T06:46:20.053Z,1023.84
2019-05-15T06:48:12.981Z,1023.79
2019-05-15T06:49:12.995Z,1023.77
2019-05-15T06:51:05.928Z,1023.80
2019-05-15T06:52:05.935Z,1023.83
2019-05-15T06:53:58.859Z,1023.86
2019-05-15T06:54:59.376Z,1023.80
2019-05-15T06:56:51.802Z,1023.72
2019-05-15T06:57:51.814Z,1023.74
2019-05-15T06:59:44.733Z,1023.72
2019-05-15T07:00:44.750Z,1023.74
2019-05-15T07:02:38.200Z,1023.84
2019-05-15T07:03:39.179Z,1023.77
2019-05-15T07:05:30.616Z,1023.75
2019-05-15T07:06:30.635Z,1023.74
2019-05-15T07:08:23.569Z,1023.82
2019-05-15T07:09:23.577Z,1023.79
2019-05-15T07:11:18.914Z,1023.81
2019-05-15T07:12:18.521Z,1023.77
2019-05-15T07:14:09.450Z,1023.73
2019-05-15T07:15:09.489Z,1023.70
2019-05-15T07:17:02.393Z,1023.69
2019-05-15T07:18:02.403Z,1023.66
2019-05-15T07:19:55.323Z,1023.69
2019-05-15T07:20:57.912Z,1023.74
2019-05-15T07:22:49.159Z,1023.67
2019-05-15T07:23:49.632Z,1023.68
2019-05-15T07:25:41.188Z,1023.75
2019-05-15T07:26:41.203Z,1023.70
2019-05-15T07:28:34.132Z,1023.66
2019-05-15T07:29:34.132Z,1023.69
2019-05-15T07:31:28.884Z,1023.59
2019-05-15T07:32:28.503Z,1023.59
2019-05-15T07:34:19.975Z,1023.51
2019-05-15T07:35:19.985Z,1023.51
2019-05-15T07:37:12.905Z,1023.55
2019-05-15T07:38:12.911Z,1023.54
2019-05-15T07:40:08.229Z,1023.53
2019-05-15T07:41:05.839Z,1023.48
2019-05-15T07:42:58.831Z,1023.44
2019-05-15T07:43:58.797Z,1023.51
2019-05-15T07:45:54.965Z,1023.48
2019-05-15T07:46:51.675Z,1023.51
2019-05-15T07:48:44.591Z,1023.44
2019-05-15T07:49:44.598Z,1023.42
2019-05-15T07:51:38.183Z,1023.55
2019-05-15T07:52:39.432Z,1023.41
2019-05-15T07:54:30.426Z,1023.47
2019-05-15T07:55:30.439Z,1023.34
2019-05-15T07:57:23.351Z,1023.49
2019-05-15T07:58:23.366Z,1023.40
2019-05-15T08:00:18.571Z,1023.46
2019-05-15T08:01:18.535Z,1023.36
2019-05-15T08:03:10.273Z,1023.41
2019-05-15T08:04:25.131Z,1023.46
2019-05-15T08:06:03.258Z,1023.54
2019-05-15T08:07:02.133Z,1023.37
2019-05-15T08:08:55.045Z,1023.34
2019-05-15T08:09:55.052Z,1023.32
2019-05-15T08:11:48.622Z,1023.38
2019-05-15T08:12:49.490Z,1023.30
2019-05-15T08:14:40.878Z,1023.27
2019-05-15T08:15:40.889Z,1023.36
2019-05-15T08:17:33.803Z,1023.33
2019-05-15T08:18:33.807Z,1023.31
2019-05-15T08:20:28.828Z,1023.26
2019-05-15T08:21:29.065Z,1023.29
2019-05-15T08:23:19.799Z,1023.20
2019-05-15T08:24:19.646Z,1023.23
2019-05-15T08:26:13.554Z,1023.23
2019-05-15T08:27:13.564Z,1023.17
2019-05-15T08:29:08.438Z,1023.22
2019-05-15T08:30:08.757Z,1023.32
2019-05-15T08:31:59.439Z,1023.14
2019-05-15T08:32:59.420Z,1023.25
2019-05-15T08:34:52.321Z,1023.22
2019-05-15T08:35:52.322Z,1023.15
2019-05-15T08:37:45.249Z,1023.14
2019-05-15T08:38:45.244Z,1023.14
2019-05-15T08:40:41.141Z,1023.24
2019-05-15T08:41:39.121Z,1023.15
2019-05-15T08:43:31.506Z,1023.06
2019-05-15T08:44:31.085Z,1023.05
2019-05-15T08:46:23.992Z,1023.01
2019-05-15T08:47:24.031Z,1023.00
2019-05-15T08:49:19.875Z,1022.99
2019-05-15T08:50:18.245Z,1023.01
2019-05-15T08:52:10.327Z,1022.91
2019-05-15T08:53:09.843Z,1022.95
2019-05-15T08:55:02.759Z,1022.92
2019-05-15T08:56:02.762Z,1022.89
2019-05-15T08:58:04.160Z,1022.87
2019-05-15T08:58:57.932Z,1022.88
2019-05-15T09:00:52.402Z,1022.87
2019-05-15T09:01:49.103Z,1022.87
2019-05-15T09:03:41.536Z,1022.84
2019-05-15T09:04:41.527Z,1022.83
2019-05-15T09:06:34.438Z,1022.78
2019-05-15T09:07:34.446Z,1022.73
2019-05-15T09:09:28.753Z,1022.72
2019-05-15T09:10:28.764Z,1022.89
2019-05-15T09:12:20.291Z,1022.77
2019-05-15T09:13:20.284Z,1022.70
2019-05-15T09:15:13.197Z,1022.73
2019-05-15T09:16:13.204Z,1022.71
2019-05-15T09:18:14.360Z,1022.81
2019-05-15T09:19:08.271Z,1022.72
2019-05-15T09:20:59.485Z,1022.69
2019-05-15T09:21:59.046Z,1022.75
2019-05-15T09:23:51.959Z,1022.70
2019-05-15T09:24:51.964Z,1022.69
2019-05-15T09:26:44.873Z,1022.69
2019-05-15T09:27:44.884Z,1022.92
2019-05-15T09:29:38.185Z,1022.73
2019-05-15T09:30:39.171Z,1022.75
2019-05-15T09:32:30.711Z,1022.61
2019-05-15T09:33:30.729Z,1022.61
2019-05-15T09:35:23.636Z,1022.60
2019-05-15T09:36:23.643Z,1022.67
2019-05-15T09:38:18.483Z,1022.51
2019-05-15T09:39:18.283Z,1022.52
2019-05-15T09:41:09.474Z,1022.46
2019-05-15T09:42:09.485Z,1022.70
2019-05-15T09:44:02.399Z,1022.54
2019-05-15T09:45:02.407Z,1022.46
2019-05-15T09:46:55.314Z,1022.38
2019-05-15T09:47:55.326Z,1022.36
2019-05-15T09:49:48.578Z,1022.36
2019-05-15T09:50:49.397Z,1022.40
2019-05-15T09:52:41.156Z,1022.44
2019-05-15T09:53:41.167Z,1022.41
2019-05-15T09:55:34.080Z,1022.43
2019-05-15T09:56:34.085Z,1022.40
2019-05-15T09:58:27.004Z,1022.37
2019-05-15T09:59:28.187Z,1022.41
2019-05-15T10:01:20.915Z,1022.31
2019-05-15T10:02:20.928Z,1022.26
2019-05-15T10:04:13.902Z,1022.22
2019-05-15T10:05:13.847Z,1022.24
2019-05-15T10:07:08.212Z,1022.25
2019-05-15T10:08:08.924Z,1022.28
2019-05-15T10:09:59.691Z,1022.28
2019-05-15T10:10:59.708Z,1022.24
2019-05-15T10:12:52.610Z,1022.18
2019-05-15T10:13:52.621Z,1022.38
2019-05-15T10:15:48.327Z,1022.23
2019-05-15T10:16:45.542Z,1022.16
2019-05-15T10:18:39.212Z,1022.12
2019-05-15T10:19:38.465Z,1022.01
2019-05-15T10:21:32.613Z,1022.12
2019-05-15T10:22:31.391Z,1022.19
2019-05-15T10:24:24.308Z,1021.94
2019-05-15T10:25:24.314Z,1021.96
2019-05-15T10:27:18.039Z,1021.94
2019-05-15T10:28:18.773Z,1021.88
2019-05-15T10:30:10.200Z,1021.81
2019-05-15T10:31:10.172Z,1021.86
2019-05-15T10:33:03.163Z,1021.80
2019-05-15T10:34:03.100Z,1021.72
2019-05-15T10:35:58.825Z,1021.98
2019-05-15T10:36:58.768Z,1021.91
2019-05-15T10:38:49.498Z,1021.90
2019-05-15T10:39:52.598Z,1021.80
2019-05-15T10:41:42.360Z,1021.80
2019-05-15T10:42:42.374Z,1021.77
2019-05-15T10:44:35.301Z,1021.99
2019-05-15T10:45:35.308Z,1021.72
2019-05-15T10:47:28.889Z,1021.74
2019-05-15T10:48:29.226Z,1021.73
2019-05-15T10:50:21.159Z,1021.62
2019-05-15T10:51:21.154Z,1021.61
2019-05-15T10:53:14.071Z,1021.63
2019-05-15T10:54:14.082Z,1021.51
2019-05-15T10:56:08.904Z,1021.61
2019-05-15T10:57:08.598Z,1021.60
2019-05-15T10:58:59.919Z,1021.51
2019-05-15T10:59:59.928Z,1021.56
2019-05-15T11:01:52.843Z,1021.64
2019-05-15T11:02:52.856Z,1021.60
2019-05-15T11:04:45.770Z,1021.64
2019-05-15T11:05:46.027Z,1021.61
2019-05-15T11:07:39.413Z,1021.65
2019-05-15T11:08:40.713Z,1021.43
2019-05-15T11:10:31.619Z,1021.66
2019-05-15T11:11:31.624Z,1021.48
2019-05-15T11:13:24.539Z,1021.37
2019-05-15T11:14:24.549Z,1021.49
2019-05-15T11:16:18.677Z,1021.48
2019-05-15T11:17:17.477Z,1021.51
2019-05-15T11:19:10.393Z,1021.54
2019-05-15T11:20:10.397Z,1021.64
2019-05-15T11:22:03.317Z,1021.44
2019-05-15T11:23:03.333Z,1021.35
2019-05-15T11:24:56.251Z,1021.45
2019-05-15T11:25:58.166Z,1021.49
2019-05-15T11:27:49.172Z,1021.52
2019-05-15T11:28:49.914Z,1021.58
2019-05-15T11:30:42.102Z,1021.31
2019-05-15T11:31:42.110Z,1021.24
2019-05-15T11:33:35.021Z,1021.27
2019-05-15T11:34:35.037Z,1021.45
2019-05-15T11:36:28.790Z,1021.29
2019-05-15T11:37:28.332Z,1021.18
2019-05-15T11:39:22.371Z,1021.23
2019-05-15T11:40:22.378Z,1021.45
2019-05-15T11:42:15.288Z,1021.30
2019-05-15T11:43:15.299Z,1021.26
2019-05-15T11:45:08.225Z,1021.29
2019-05-15T11:46:09.958Z,1021.32
2019-05-15T11:48:01.172Z,1021.29
2019-05-15T11:49:01.149Z,1021.11
2019-05-15T11:50:54.073Z,1021.08
2019-05-15T11:51:54.078Z,1021.15
2019-05-15T11:53:49.218Z,1021.12
2019-05-15T11:54:49.443Z,1021.27
2019-05-15T11:56:39.928Z,1021.23
2019-05-15T11:57:46.936Z,1021.21
2019-05-15T11:59:32.846Z,1021.22
2019-05-15T12:00:32.854Z,1021.13
2019-05-15T12:02:25.767Z,1021.12
2019-05-15T12:03:25.779Z,1021.23
2019-05-15T12:05:18.704Z,1021.11
2019-05-15T12:06:22.617Z,1021.06
2019-05-15T12:08:12.657Z,1021.03
2019-05-15T12:09:11.655Z,1021.04
2019-05-15T12:11:04.570Z,1021.01
2019-05-15T12:12:04.578Z,1020.96
2019-05-15T12:13:57.511Z,1020.96
2019-05-15T12:14:57.507Z,1020.95
2019-05-15T12:17:50.431Z,1020.95
2019-05-15T12:19:43.350Z,1020.98
2019-05-15T12:20:43.350Z,1020.99
2019-05-15T12:22:38.943Z,1021.00
2019-05-15T12:23:38.716Z,1020.98
2019-05-15T12:25:31.967Z,1020.97
2019-05-15T12:26:29.726Z,1020.96
2019-05-15T12:28:22.641Z,1020.83
2019-05-15T12:29:22.652Z,1020.88
2019-05-15T12:31:15.568Z,1020.86
2019-05-15T12:34:09.223Z,1020.92
2019-05-15T12:35:08.506Z,1020.93
2019-05-15T12:37:01.425Z,1020.89
2019-05-15T12:38:01.431Z,1020.96
2019-05-15T13:00:07.469Z,1020.62
2019-05-15T13:01:16.570Z,1020.61
2019-05-15T13:02:59.381Z,1020.86
2019-05-15T13:03:58.299Z,1020.53
2019-05-15T13:05:51.669Z,1020.52
2019-05-15T13:07:11.685Z,1020.52
2019-05-15T13:08:44.150Z,1020.48
2019-05-15T13:09:44.163Z,1020.47
2019-05-15T13:11:37.815Z,1020.48
2019-05-15T13:12:47.604Z,1020.51
2019-05-15T13:14:30.039Z,1020.47
2019-05-15T13:15:30.051Z,1020.52
2019-05-15T13:17:23.095Z,1020.56
2019-05-15T13:18:23.103Z,1020.53
2019-05-15T13:20:18.259Z,1020.55
2019-05-15T13:21:20.591Z,1020.50
2019-05-15T13:23:08.975Z,1020.50
2019-05-15T13:24:08.959Z,1020.59
2019-05-15T13:26:01.885Z,1020.55
2019-05-15T13:27:01.892Z,1020.51
2019-05-15T13:28:54.807Z,1020.46
2019-05-15T13:29:54.823Z,1020.62
2019-05-15T13:31:47.936Z,1020.48
2019-05-15T13:32:49.667Z,1020.46
2019-05-15T13:34:40.671Z,1020.47
2019-05-15T13:35:40.681Z,1020.43
2019-05-15T13:37:33.605Z,1020.39
2019-05-15T13:38:33.615Z,1020.33
2019-05-15T13:40:36.989Z,1020.34
2019-05-15T13:41:28.243Z,1020.32
2019-05-15T13:43:19.461Z,1020.32
2019-05-15T13:44:19.476Z,1020.29
2019-05-15T13:46:12.397Z,1020.20
2019-05-15T13:47:12.405Z,1020.19
2019-05-15T13:49:05.328Z,1020.14
2019-05-15T13:50:05.337Z,1020.14
2019-05-15T13:51:59.316Z,1020.33
2019-05-15T13:52:58.980Z,1020.11
2019-05-15T13:54:51.207Z,1020.13
2019-05-15T13:55:51.209Z,1020.14
2019-05-15T13:57:44.133Z,1020.13
2019-05-15T13:58:44.136Z,1020.05
2019-05-15T14:00:39.050Z,1020.07
2019-05-15T14:01:39.395Z,1019.99
2019-05-15T14:03:29.985Z,1020.14
2019-05-15T14:04:30.048Z,1020.03
2019-05-15T14:06:22.927Z,1020.03
2019-05-15T14:07:22.928Z,1020.03
2019-05-15T14:09:15.847Z,1020.04
2019-05-15T14:10:17.969Z,1019.98
2019-05-15T14:12:12.470Z,1019.94
2019-05-15T14:13:08.788Z,1019.99
2019-05-15T14:15:01.742Z,1019.90
2019-05-15T14:16:01.717Z,1019.79
2019-05-15T14:17:54.639Z,1019.77
2019-05-15T14:18:54.644Z,1019.84
2019-05-15T14:20:49.028Z,1020.00
2019-05-15T14:21:49.056Z,1019.83
2019-05-15T14:23:40.488Z,1019.86
2019-05-15T14:24:40.502Z,1019.81
2019-05-15T14:26:33.422Z,1019.80
2019-05-15T14:27:33.432Z,1019.74
2019-05-15T14:29:28.976Z,1019.62
2019-05-15T14:30:29.025Z,1019.60
2019-05-15T14:32:33.922Z,1019.56
2019-05-15T14:33:19.553Z,1019.58
2019-05-15T14:35:12.223Z,1019.57
2019-05-15T14:36:12.217Z,1019.67
2019-05-15T14:38:06.774Z,1019.58
2019-05-15T14:39:05.147Z,1019.60
2019-05-15T14:40:59.060Z,1019.40
2019-05-15T14:41:58.406Z,1019.51
2019-05-15T14:43:51.102Z,1019.43
2019-05-15T14:44:51.117Z,1019.55
2019-05-15T14:46:44.036Z,1019.41
2019-05-15T14:47:44.039Z,1019.39
2019-05-15T14:49:43.576Z,1019.32
2019-05-15T14:50:38.472Z,1019.35
2019-05-15T14:52:29.903Z,1019.40
2019-05-15T14:53:29.914Z,1019.37
2019-05-15T14:55:22.865Z,1019.52
2019-05-15T14:56:22.839Z,1019.42
2019-05-15T14:58:15.765Z,1019.35
2019-05-15T14:59:15.797Z,1019.29
2019-05-15T15:01:12.523Z,1019.31
2019-05-15T15:02:09.181Z,1019.30
2019-05-15T15:04:01.613Z,1019.33
2019-05-15T15:05:01.629Z,1019.27
2019-05-15T15:06:54.549Z,1019.35
2019-05-15T15:07:54.557Z,1019.29
2019-05-15T15:09:47.842Z,1019.43
2019-05-15T15:10:47.491Z,1019.33
2019-05-15T15:12:40.404Z,1019.50
2019-05-15T15:13:40.415Z,1019.37
2019-05-15T15:15:33.345Z,1019.43
2019-05-15T15:16:33.347Z,1019.38
2019-05-15T15:18:28.097Z,1019.38
2019-05-15T15:19:29.132Z,1019.42
2019-05-15T15:21:22.066Z,1019.32
2019-05-15T15:22:19.206Z,1019.32
2019-05-15T15:24:12.130Z,1019.32
2019-05-15T15:25:12.145Z,1019.35
2019-05-15T15:27:08.158Z,1019.34
2019-05-15T15:28:08.051Z,1019.26
2019-05-15T15:29:58.487Z,1019.32
2019-05-15T15:30:58.495Z,1019.26
2019-05-15T15:32:51.413Z,1019.23
2019-05-15T15:33:51.419Z,1019.22
2019-05-15T15:35:44.333Z,1019.29
2019-05-15T15:36:44.347Z,1019.26
2019-05-15T15:38:41.659Z,1019.19
2019-05-15T15:39:38.656Z,1019.16
2019-05-15T15:41:30.198Z,1019.15
2019-05-15T15:42:30.204Z,1019.08
2019-05-15T15:44:23.120Z,1019.04
2019-05-15T15:45:23.148Z,1018.99
2019-05-15T15:47:16.052Z,1018.94
2019-05-15T15:48:16.060Z,1018.99
2019-05-15T15:50:09.825Z,1018.93
2019-05-15T15:51:09.325Z,1018.90
2019-05-15T15:53:01.914Z,1018.97
2019-05-15T15:54:01.924Z,1018.89
2019-05-15T15:55:54.837Z,1018.93
2019-05-15T15:56:54.845Z,1018.91
2019-05-15T15:58:48.925Z,1018.86
2019-05-15T15:59:49.159Z,1018.92
2019-05-15T16:01:40.695Z,1018.89
2019-05-15T16:02:41.350Z,1018.83
2019-05-15T16:04:33.619Z,1018.92
2019-05-15T16:05:33.632Z,1018.82
2019-05-15T16:07:28.287Z,1018.81
2019-05-15T16:08:28.516Z,1018.80
2019-05-15T16:10:19.479Z,1018.71
2019-05-15T16:11:19.490Z,1018.72
2019-05-15T16:13:12.413Z,1018.68
2019-05-15T16:14:12.419Z,1018.65
2019-05-15T16:16:05.333Z,1018.86
2019-05-15T16:17:05.348Z,1018.68
2019-05-15T16:18:58.283Z,1018.67
2019-05-15T16:19:58.282Z,1018.63
2019-05-15T16:21:51.202Z,1018.69
2019-05-15T16:22:51.244Z,1018.67
2019-05-15T16:24:44.124Z,1018.61
2019-05-15T16:25:44.145Z,1018.59
2019-05-15T16:27:38.276Z,1018.58
2019-05-15T16:28:38.779Z,1018.55
2019-05-15T16:30:30.021Z,1018.56
2019-05-15T16:31:30.017Z,1018.56
2019-05-15T16:33:22.929Z,1018.59
2019-05-15T16:34:22.936Z,1018.57
2019-05-15T16:36:18.137Z,1018.64
2019-05-15T16:37:18.667Z,1018.49
2019-05-15T16:39:11.690Z,1018.52
2019-05-15T16:40:08.790Z,1018.55
2019-05-15T16:42:01.710Z,1018.53
2019-05-15T16:43:01.715Z,1018.55
2019-05-15T16:44:54.651Z,1018.58
2019-05-15T16:45:54.663Z,1018.45
2019-05-15T16:47:48.164Z,1018.43
2019-05-15T16:48:49.438Z,1018.43
2019-05-15T16:50:40.509Z,1018.39
2019-05-15T16:51:40.523Z,1018.45
2019-05-15T16:53:33.445Z,1018.39
2019-05-15T16:54:33.450Z,1018.40
2019-05-15T16:56:28.363Z,1018.37
2019-05-15T16:57:28.404Z,1018.40
2019-05-15T16:59:19.318Z,1018.46
2019-05-15T17:00:19.327Z,1018.51
2019-05-15T17:02:12.249Z,1018.52
2019-05-15T17:03:14.930Z,1018.46
2019-05-15T17:05:05.160Z,1018.50
2019-05-15T17:06:05.174Z,1018.49
2019-05-15T17:07:58.467Z,1018.46
2019-05-15T17:08:58.115Z,1018.46
2019-05-15T17:10:51.014Z,1018.40
2019-05-15T17:11:51.029Z,1018.44
2019-05-15T17:13:43.959Z,1018.45
2019-05-15T17:14:43.955Z,1018.49
2019-05-15T17:16:38.684Z,1018.46
2019-05-15T17:17:38.783Z,1018.45
2019-05-15T17:19:29.824Z,1018.53
2019-05-15T17:20:29.818Z,1018.51
2019-05-15T17:22:22.734Z,1018.54
2019-05-15T17:23:22.749Z,1018.52
2019-05-15T17:25:18.172Z,1018.50
2019-05-15T17:26:15.665Z,1018.51
2019-05-15T17:28:09.130Z,1018.47
2019-05-15T17:29:09.013Z,1018.49
2019-05-15T17:31:01.512Z,1018.49
2019-05-15T17:32:01.523Z,1018.47
2019-05-15T17:33:54.441Z,1018.45
2019-05-15T17:34:54.450Z,1018.46
2019-05-15T17:36:48.970Z,1018.47
2019-05-15T17:37:48.746Z,1018.50
2019-05-15T17:39:41.721Z,1018.48
2019-05-15T17:40:40.308Z,1018.46
2019-05-15T17:42:33.229Z,1018.48
2019-05-15T17:43:33.295Z,1018.45
2019-05-15T17:45:28.290Z,1018.46
2019-05-15T17:46:29.308Z,1018.47
2019-05-15T17:48:19.742Z,1018.50
2019-05-15T17:49:19.095Z,1018.59